sensor_id;sensor_type;location;lat;lon;timestamp;pressure;altitude;pressure_sealevel;temperature;humidity
50226;BME280;36113;50.742;6.432;2023-04-30T00:01:32;112741.81;;;-145.50;100.00
50226;BME280;36113;50.742;6.432;2023-04-30T00:03:57;112741.81;;;-145.50;100.00
50226;BME280;36113;50.742;6.432;2023-04-30T00:06:23;112741.81;;;-145.50;100.00
50226;BME280;36113;50.742;6.432;2023-04-30T00:08:48;112741.81;;;-145.50;100.00
50226;BME280;36113;50.742;6.432;2023-04-30T00:11:13;112741.81;;;-145.50;100.00
50226;BME280;36113;50.742;6.432;2023-04-30T00:13:39;112741.81;;;-145.50;100.00
50226;BME280;36113;50.742;6.432;2023-04-30T00:16:07;112741.81;;;-145.50;100.00
50226;BME280;36113;50.742;6.432;2023-04-30T00:18:32;112741.81;;;-145.50;100.00
50226;BME280;36113;50.742;6.432;2023-04-30T00:20:57;112741.81;;;-145.50;100.00
50226;BME280;36113;50.742;6.432;2023-04-30T00:23:23;112741.81;;;-145.50;100.00
50226;BME280;36113;50.742;6.432;2023-04-30T00:25:48;112741.81;;;-145.50;100.00
50226;BME280;36113;50.742;6.432;2023-04-30T00:28:13;112741.81;;;-145.50;100.00
50226;BME280;36113;50.742;6.432;2023-04-30T00:30:39;112741.81;;;-145.50;100.00
50226;BME280;36113;50.742;6.432;2023-04-30T00:33:04;112741.81;;;-145.50;100.00
50226;BME280;36113;50.742;6.432;2023-04-30T00:35:30;112741.81;;;-145.50;100.00
50226;BME280;36113;50.742;6.432;2023-04-30T00:37:55;112741.81;;;-145.50;100.00
50226;BME280;36113;50.742;6.432;2023-04-30T00:40:20;112741.81;;;-145.50;100.00
50226;BME280;36113;50.742;6.432;2023-04-30T00:42:48;112741.81;;;-145.50;100.00
50226;BME280;36113;50.742;6.432;2023-04-30T00:45:13;112741.81;;;-145.50;100.00
50226;BME280;36113;50.742;6.432;2023-04-30T00:47:39;112741.81;;;-145.50;100.00
50226;BME280;36113;50.742;6.432;2023-04-30T00:50:05;112741.81;;;-145.50;100.00
50226;BME280;36113;50.742;6.432;2023-04-30T00:52:31;112741.81;;;-145.50;100.00
50226;BME280;36113;50.742;6.432;2023-04-30T00:54:56;112741.81;;;-145.50;100.00
50226;BME280;36113;50.742;6.432;2023-04-30T00:57:22;112741.81;;;-145.50;100.00
50226;BME280;36113;50.742;6.432;2023-04-30T00:59:50;112741.81;;;-145.50;100.00
50226;BME280;36113;50.742;6.432;2023-04-30T01:02:16;112741.81;;;-145.50;100.00
50226;BME280;36113;50.742;6.432;2023-04-30T01:04:42;112741.81;;;-145.50;100.00
50226;BME280;36113;50.742;6.432;2023-04-30T01:07:07;112741.81;;;-145.50;100.00
50226;BME280;36113;50.742;6.432;2023-04-30T01:09:33;112741.81;;;-145.50;100.00
50226;BME280;36113;50.742;6.432;2023-04-30T01:12:13;112741.81;;;-145.50;100.00
50226;BME280;36113;50.742;6.432;2023-04-30T01:18:13;112741.81;;;-145.50;100.00
50226;BME280;36113;50.742;6.432;2023-04-30T01:20:19;112741.81;;;-145.50;100.00
50226;BME280;36113;50.742;6.432;2023-04-30T01:25:24;112741.81;;;-145.50;100.00
50226;BME280;36113;50.742;6.432;2023-04-30T01:28:04;112741.81;;;-145.50;100.00
50226;BME280;36113;50.742;6.432;2023-04-30T01:30:31;112741.81;;;-145.50;100.00
50226;BME280;36113;50.742;6.432;2023-04-30T01:32:57;112741.81;;;-145.50;100.00
50226;BME280;36113;50.742;6.432;2023-04-30T01:35:41;112741.81;;;-145.50;100.00
50226;BME280;36113;50.742;6.432;2023-04-30T01:41:22;112741.81;;;-145.50;100.00
50226;BME280;36113;50.742;6.432;2023-04-30T01:46:27;112741.81;;;-145.50;100.00
50226;BME280;36113;50.742;6.432;2023-04-30T01:48:57;112741.81;;;-145.50;100.00
50226;BME280;36113;50.742;6.432;2023-04-30T01:51:40;112741.81;;;-145.50;100.00
50226;BME280;36113;50.742;6.432;2023-04-30T01:54:42;112741.81;;;-145.50;100.00
50226;BME280;36113;50.742;6.432;2023-04-30T01:57:17;112741.81;;;-145.50;100.00
50226;BME280;36113;50.742;6.432;2023-04-30T01:59:45;112741.81;;;-145.50;100.00
50226;BME280;36113;50.742;6.432;2023-04-30T02:02:11;112741.81;;;-145.50;100.00
50226;BME280;36113;50.742;6.432;2023-04-30T02:04:36;112741.81;;;-145.50;100.00
50226;BME280;36113;50.742;6.432;2023-04-30T02:07:03;112741.81;;;-145.50;100.00
50226;BME280;36113;50.742;6.432;2023-04-30T02:09:28;112741.81;;;-145.50;100.00
50226;BME280;36113;50.742;6.432;2023-04-30T02:11:54;112741.81;;;-145.50;100.00
50226;BME280;36113;50.742;6.432;2023-04-30T02:14:19;112741.81;;;-145.50;100.00
50226;BME280;36113;50.742;6.432;2023-04-30T02:16:44;112741.81;;;-145.50;100.00
50226;BME280;36113;50.742;6.432;2023-04-30T02:19:11;112741.81;;;-145.50;100.00
50226;BME280;36113;50.742;6.432;2023-04-30T02:21:36;112741.81;;;-145.50;100.00
50226;BME280;36113;50.742;6.432;2023-04-30T02:24:01;112741.81;;;-145.50;100.00
50226;BME280;36113;50.742;6.432;2023-04-30T02:26:27;112741.81;;;-145.50;100.00
50226;BME280;36113;50.742;6.432;2023-04-30T02:28:56;112741.81;;;-145.50;100.00
50226;BME280;36113;50.742;6.432;2023-04-30T02:31:21;112741.81;;;-145.50;100.00
50226;BME280;36113;50.742;6.432;2023-04-30T02:33:46;112741.81;;;-145.50;100.00
50226;BME280;36113;50.742;6.432;2023-04-30T02:36:12;112741.81;;;-145.50;100.00
50226;BME280;36113;50.742;6.432;2023-04-30T02:38:37;112741.81;;;-145.50;100.00
50226;BME280;36113;50.742;6.432;2023-04-30T02:41:02;112741.81;;;-145.50;100.00
50226;BME280;36113;50.742;6.432;2023-04-30T02:43:28;112741.81;;;-145.50;100.00
50226;BME280;36113;50.742;6.432;2023-04-30T02:45:53;112741.81;;;-145.50;100.00
50226;BME280;36113;50.742;6.432;2023-04-30T02:48:18;112741.81;;;-145.50;100.00
50226;BME280;36113;50.742;6.432;2023-04-30T02:50:44;112741.81;;;-145.50;100.00
50226;BME280;36113;50.742;6.432;2023-04-30T02:53:09;112741.81;;;-145.50;100.00
50226;BME280;36113;50.742;6.432;2023-04-30T02:55:34;112741.81;;;-145.50;100.00
50226;BME280;36113;50.742;6.432;2023-04-30T02:58:00;112741.81;;;-145.50;100.00
50226;BME280;36113;50.742;6.432;2023-04-30T03:00:25;112741.81;;;-145.50;100.00
50226;BME280;36113;50.742;6.432;2023-04-30T03:03:03;112741.81;;;-145.50;100.00
50226;BME280;36113;50.742;6.432;2023-04-30T03:05:29;112741.81;;;-145.50;100.00
50226;BME280;36113;50.742;6.432;2023-04-30T03:07:54;112741.81;;;-145.50;100.00
50226;BME280;36113;50.742;6.432;2023-04-30T03:10:21;112741.81;;;-145.50;100.00
50226;BME280;36113;50.742;6.432;2023-04-30T03:12:46;112741.81;;;-145.50;100.00
50226;BME280;36113;50.742;6.432;2023-04-30T03:15:11;112741.81;;;-145.50;100.00
50226;BME280;36113;50.742;6.432;2023-04-30T03:17:36;112741.81;;;-145.50;100.00
50226;BME280;36113;50.742;6.432;2023-04-30T03:20:02;112741.81;;;-145.50;100.00
50226;BME280;36113;50.742;6.432;2023-04-30T03:22:29;112741.81;;;-145.50;100.00
50226;BME280;36113;50.742;6.432;2023-04-30T03:24:54;112741.81;;;-145.50;100.00
50226;BME280;36113;50.742;6.432;2023-04-30T03:27:20;112741.81;;;-145.50;100.00
50226;BME280;36113;50.742;6.432;2023-04-30T03:29:45;112741.81;;;-145.50;100.00
50226;BME280;36113;50.742;6.432;2023-04-30T03:32:10;112741.81;;;-145.50;100.00
50226;BME280;36113;50.742;6.432;2023-04-30T03:34:37;112741.81;;;-145.50;100.00
50226;BME280;36113;50.742;6.432;2023-04-30T03:37:02;112741.81;;;-145.50;100.00
50226;BME280;36113;50.742;6.432;2023-04-30T03:39:27;112741.81;;;-145.50;100.00
50226;BME280;36113;50.742;6.432;2023-04-30T03:41:53;112741.81;;;-145.50;100.00
50226;BME280;36113;50.742;6.432;2023-04-30T03:44:18;112741.81;;;-145.50;100.00
50226;BME280;36113;50.742;6.432;2023-04-30T03:46:44;112741.81;;;-145.50;100.00
50226;BME280;36113;50.742;6.432;2023-04-30T03:49:09;112741.81;;;-145.50;100.00
50226;BME280;36113;50.742;6.432;2023-04-30T03:51:36;112741.81;;;-145.50;100.00
50226;BME280;36113;50.742;6.432;2023-04-30T03:54:05;112741.81;;;-145.50;100.00
50226;BME280;36113;50.742;6.432;2023-04-30T03:56:32;112741.81;;;-145.50;100.00
50226;BME280;36113;50.742;6.432;2023-04-30T03:58:57;112741.81;;;-145.50;100.00
50226;BME280;36113;50.742;6.432;2023-04-30T04:01:23;112741.81;;;-145.50;100.00
50226;BME280;36113;50.742;6.432;2023-04-30T04:03:48;112741.81;;;-145.50;100.00
50226;BME280;36113;50.742;6.432;2023-04-30T04:06:15;112741.81;;;-145.50;100.00
50226;BME280;36113;50.742;6.432;2023-04-30T04:08:41;112741.81;;;-145.50;100.00
50226;BME280;36113;50.742;6.432;2023-04-30T04:11:10;112741.81;;;-145.50;100.00
50226;BME280;36113;50.742;6.432;2023-04-30T04:13:36;112741.81;;;-145.50;100.00
50226;BME280;36113;50.742;6.432;2023-04-30T04:16:01;112741.81;;;-145.50;100.00
50226;BME280;36113;50.742;6.432;2023-04-30T04:18:26;112741.81;;;-145.50;100.00
50226;BME280;36113;50.742;6.432;2023-04-30T04:20:51;112741.81;;;-145.50;100.00
50226;BME280;36113;50.742;6.432;2023-04-30T04:23:17;112741.81;;;-145.50;100.00
50226;BME280;36113;50.742;6.432;2023-04-30T04:25:42;112741.81;;;-145.50;100.00
50226;BME280;36113;50.742;6.432;2023-04-30T04:28:08;112741.81;;;-145.50;100.00
50226;BME280;36113;50.742;6.432;2023-04-30T04:30:38;112741.81;;;-145.50;100.00
50226;BME280;36113;50.742;6.432;2023-04-30T04:33:04;112741.81;;;-145.50;100.00
50226;BME280;36113;50.742;6.432;2023-04-30T04:35:29;112741.81;;;-145.50;100.00
50226;BME280;36113;50.742;6.432;2023-04-30T04:37:57;112741.81;;;-145.50;100.00
50226;BME280;36113;50.742;6.432;2023-04-30T04:40:23;112741.81;;;-145.50;100.00
50226;BME280;36113;50.742;6.432;2023-04-30T04:42:49;112741.81;;;-145.50;100.00
50226;BME280;36113;50.742;6.432;2023-04-30T04:45:15;112741.81;;;-145.50;100.00
50226;BME280;36113;50.742;6.432;2023-04-30T04:47:40;112741.81;;;-145.50;100.00
50226;BME280;36113;50.742;6.432;2023-04-30T04:50:06;112741.81;;;-145.50;100.00
50226;BME280;36113;50.742;6.432;2023-04-30T04:52:31;112741.81;;;-145.50;100.00
50226;BME280;36113;50.742;6.432;2023-04-30T04:54:57;112741.81;;;-145.50;100.00
50226;BME280;36113;50.742;6.432;2023-04-30T04:57:22;112741.81;;;-145.50;100.00
50226;BME280;36113;50.742;6.432;2023-04-30T04:59:48;112741.81;;;-145.50;100.00
50226;BME280;36113;50.742;6.432;2023-04-30T05:02:14;112741.81;;;-145.50;100.00
50226;BME280;36113;50.742;6.432;2023-04-30T05:04:40;112741.81;;;-145.50;100.00
50226;BME280;36113;50.742;6.432;2023-04-30T05:07:06;112741.81;;;-145.50;100.00
50226;BME280;36113;50.742;6.432;2023-04-30T05:09:32;112741.81;;;-145.50;100.00
50226;BME280;36113;50.742;6.432;2023-04-30T05:11:57;112741.81;;;-145.50;100.00
50226;BME280;36113;50.742;6.432;2023-04-30T05:14:23;112741.81;;;-145.50;100.00
50226;BME280;36113;50.742;6.432;2023-04-30T05:16:48;112741.81;;;-145.50;100.00
50226;BME280;36113;50.742;6.432;2023-04-30T05:19:13;112741.81;;;-145.50;100.00
50226;BME280;36113;50.742;6.432;2023-04-30T05:21:39;112741.81;;;-145.50;100.00
50226;BME280;36113;50.742;6.432;2023-04-30T05:24:05;112741.81;;;-145.50;100.00
50226;BME280;36113;50.742;6.432;2023-04-30T05:26:30;112741.81;;;-145.50;100.00
50226;BME280;36113;50.742;6.432;2023-04-30T05:28:56;112741.81;;;-145.50;100.00
50226;BME280;36113;50.742;6.432;2023-04-30T05:31:21;112741.81;;;-145.50;100.00
50226;BME280;36113;50.742;6.432;2023-04-30T05:33:48;112741.81;;;-145.50;100.00
50226;BME280;36113;50.742;6.432;2023-04-30T05:36:13;112741.81;;;-145.50;100.00
50226;BME280;36113;50.742;6.432;2023-04-30T05:38:39;112741.81;;;-145.50;100.00
50226;BME280;36113;50.742;6.432;2023-04-30T05:41:04;112741.81;;;-145.50;100.00
50226;BME280;36113;50.742;6.432;2023-04-30T05:43:29;112741.81;;;-145.50;99.94
50226;BME280;36113;50.742;6.432;2023-04-30T05:45:55;112741.81;;;-145.50;99.31
50226;BME280;36113;50.742;6.432;2023-04-30T05:48:20;112741.81;;;-145.50;98.99
50226;BME280;36113;50.742;6.432;2023-04-30T05:50:45;112741.81;;;-145.50;98.97
50226;BME280;36113;50.742;6.432;2023-04-30T05:53:12;112741.81;;;-145.50;98.48
50226;BME280;36113;50.742;6.432;2023-04-30T05:55:37;112741.81;;;-145.50;98.01
50226;BME280;36113;50.742;6.432;2023-04-30T05:58:03;112741.81;;;-145.50;97.62
50226;BME280;36113;50.742;6.432;2023-04-30T06:00:28;112741.81;;;-145.50;97.39
50226;BME280;36113;50.742;6.432;2023-04-30T06:02:54;112741.81;;;-145.50;97.25
50226;BME280;36113;50.742;6.432;2023-04-30T06:05:19;112741.81;;;-145.50;97.39
50226;BME280;36113;50.742;6.432;2023-04-30T06:07:44;112741.81;;;-145.50;97.37
50226;BME280;36113;50.742;6.432;2023-04-30T06:10:10;112741.81;;;-145.50;96.43
50226;BME280;36113;50.742;6.432;2023-04-30T06:12:36;112741.81;;;-145.50;96.56
50226;BME280;36113;50.742;6.432;2023-04-30T06:15:03;112741.81;;;-145.50;96.75
50226;BME280;36113;50.742;6.432;2023-04-30T06:17:29;112741.81;;;-145.50;94.95
50226;BME280;36113;50.742;6.432;2023-04-30T06:19:54;112741.81;;;-145.50;95.24
50226;BME280;36113;50.742;6.432;2023-04-30T06:22:21;112741.81;;;-145.50;95.03
50226;BME280;36113;50.742;6.432;2023-04-30T06:24:46;112741.81;;;-145.50;94.84
50226;BME280;36113;50.742;6.432;2023-04-30T06:27:11;112741.81;;;-145.50;94.77
50226;BME280;36113;50.742;6.432;2023-04-30T06:29:36;112741.81;;;-145.50;94.03
50226;BME280;36113;50.742;6.432;2023-04-30T06:32:02;112741.81;;;-145.50;92.45
50226;BME280;36113;50.742;6.432;2023-04-30T06:34:27;112741.81;;;-145.50;92.21
50226;BME280;36113;50.742;6.432;2023-04-30T06:36:52;112741.81;;;-145.50;92.25
50226;BME280;36113;50.742;6.432;2023-04-30T06:39:18;112741.81;;;-145.50;92.70
50226;BME280;36113;50.742;6.432;2023-04-30T06:41:43;112741.81;;;-145.50;93.84
50226;BME280;36113;50.742;6.432;2023-04-30T06:44:08;112741.81;;;-145.50;93.42
50226;BME280;36113;50.742;6.432;2023-04-30T06:46:34;112741.81;;;-145.50;92.33
50226;BME280;36113;50.742;6.432;2023-04-30T06:48:59;112741.81;;;-145.50;92.49
50226;BME280;36113;50.742;6.432;2023-04-30T06:51:25;112741.81;;;-145.50;92.01
50226;BME280;36113;50.742;6.432;2023-04-30T06:53:51;112741.81;;;-145.50;91.81
50226;BME280;36113;50.742;6.432;2023-04-30T06:56:16;112741.81;;;-145.50;91.56
50226;BME280;36113;50.742;6.432;2023-04-30T06:58:41;112741.81;;;-145.50;91.30
50226;BME280;36113;50.742;6.432;2023-04-30T07:01:07;112741.81;;;-145.50;90.83
50226;BME280;36113;50.742;6.432;2023-04-30T07:03:33;112741.81;;;-145.50;90.47
50226;BME280;36113;50.742;6.432;2023-04-30T07:05:58;112741.81;;;-145.50;90.45
50226;BME280;36113;50.742;6.432;2023-04-30T07:08:24;112741.81;;;-145.50;90.28
50226;BME280;36113;50.742;6.432;2023-04-30T07:10:49;112741.81;;;-145.50;90.14
50226;BME280;36113;50.742;6.432;2023-04-30T07:13:15;112741.81;;;-145.50;88.00
50226;BME280;36113;50.742;6.432;2023-04-30T07:15:40;112741.81;;;-145.50;88.44
50226;BME280;36113;50.742;6.432;2023-04-30T07:18:06;112741.81;;;-145.50;87.97
50226;BME280;36113;50.742;6.432;2023-04-30T07:20:31;112741.81;;;-145.50;88.47
50226;BME280;36113;50.742;6.432;2023-04-30T07:22:57;112741.81;;;-145.50;89.01
50226;BME280;36113;50.742;6.432;2023-04-30T07:25:22;112741.81;;;-145.50;88.45
50226;BME280;36113;50.742;6.432;2023-04-30T07:27:50;112741.81;;;-145.50;87.67
50226;BME280;36113;50.742;6.432;2023-04-30T07:30:16;112741.81;;;-145.50;89.30
50226;BME280;36113;50.742;6.432;2023-04-30T07:32:41;112741.81;;;-145.50;89.91
50226;BME280;36113;50.742;6.432;2023-04-30T07:35:08;112741.81;;;-145.50;89.19
50226;BME280;36113;50.742;6.432;2023-04-30T07:37:33;112741.81;;;-145.50;88.83
50226;BME280;36113;50.742;6.432;2023-04-30T07:39:59;112741.81;;;-145.50;89.28
50226;BME280;36113;50.742;6.432;2023-04-30T07:42:24;112741.81;;;-145.50;89.37
50226;BME280;36113;50.742;6.432;2023-04-30T07:44:50;112741.81;;;-145.50;88.71
50226;BME280;36113;50.742;6.432;2023-04-30T07:47:16;112741.81;;;-145.50;87.87
50226;BME280;36113;50.742;6.432;2023-04-30T07:49:42;112741.81;;;-145.50;89.26
50226;BME280;36113;50.742;6.432;2023-04-30T07:52:07;112741.81;;;-145.50;88.07
50226;BME280;36113;50.742;6.432;2023-04-30T07:54:35;112741.81;;;-145.50;85.62
50226;BME280;36113;50.742;6.432;2023-04-30T07:57:03;112741.81;;;-145.50;87.05
50226;BME280;36113;50.742;6.432;2023-04-30T07:59:28;112741.81;;;-145.50;86.18
50226;BME280;36113;50.742;6.432;2023-04-30T08:01:53;112741.81;;;-145.50;85.18
50226;BME280;36113;50.742;6.432;2023-04-30T08:04:19;112741.81;;;-145.50;85.16
50226;BME280;36113;50.742;6.432;2023-04-30T08:06:44;112741.81;;;-145.50;86.25
50226;BME280;36113;50.742;6.432;2023-04-30T08:09:10;112741.81;;;-145.50;84.74
50226;BME280;36113;50.742;6.432;2023-04-30T08:11:35;112741.81;;;-145.50;85.48
50226;BME280;36113;50.742;6.432;2023-04-30T08:14:00;112741.81;;;-145.50;84.90
50226;BME280;36113;50.742;6.432;2023-04-30T08:16:26;112741.81;;;-145.50;83.59
50226;BME280;36113;50.742;6.432;2023-04-30T08:18:51;112741.81;;;-145.50;81.71
50226;BME280;36113;50.742;6.432;2023-04-30T08:21:16;112741.81;;;-145.50;80.21
50226;BME280;36113;50.742;6.432;2023-04-30T08:23:42;112741.81;;;-145.50;80.79
50226;BME280;36113;50.742;6.432;2023-04-30T08:26:07;112741.81;;;-145.50;81.24
50226;BME280;36113;50.742;6.432;2023-04-30T08:28:33;112741.81;;;-145.50;79.38
50226;BME280;36113;50.742;6.432;2023-04-30T08:30:58;112741.81;;;-145.50;80.66
50226;BME280;36113;50.742;6.432;2023-04-30T08:33:23;112741.81;;;-145.50;78.53
50226;BME280;36113;50.742;6.432;2023-04-30T08:35:49;112741.81;;;-145.50;77.92
50226;BME280;36113;50.742;6.432;2023-04-30T08:38:15;112741.81;;;-145.50;77.12
50226;BME280;36113;50.742;6.432;2023-04-30T08:40:41;112741.81;;;-145.50;75.65
50226;BME280;36113;50.742;6.432;2023-04-30T08:43:08;112741.81;;;-145.50;76.47
50226;BME280;36113;50.742;6.432;2023-04-30T08:45:35;112741.81;;;-145.50;74.47
50226;BME280;36113;50.742;6.432;2023-04-30T08:48:02;112741.81;;;-145.50;75.51
50226;BME280;36113;50.742;6.432;2023-04-30T08:50:29;112741.81;;;-145.50;73.97
50226;BME280;36113;50.742;6.432;2023-04-30T08:52:56;112741.81;;;-145.50;72.02
50226;BME280;36113;50.742;6.432;2023-04-30T08:55:26;112741.81;;;-145.50;73.81
50226;BME280;36113;50.742;6.432;2023-04-30T08:57:51;112741.81;;;-145.50;73.32
50226;BME280;36113;50.742;6.432;2023-04-30T09:00:17;112741.81;;;-145.50;68.99
50226;BME280;36113;50.742;6.432;2023-04-30T09:02:42;112741.81;;;-145.50;70.85
50226;BME280;36113;50.742;6.432;2023-04-30T09:05:12;112741.81;;;-145.50;63.51
50226;BME280;36113;50.742;6.432;2023-04-30T09:07:42;112741.81;;;-145.50;64.65
50226;BME280;36113;50.742;6.432;2023-04-30T09:10:14;112741.81;;;-145.50;64.34
50226;BME280;36113;50.742;6.432;2023-04-30T09:12:40;112741.81;;;-145.50;60.80
50226;BME280;36113;50.742;6.432;2023-04-30T09:15:08;112741.81;;;-145.50;59.50
50226;BME280;36113;50.742;6.432;2023-04-30T09:17:34;112741.81;;;-145.50;59.31
50226;BME280;36113;50.742;6.432;2023-04-30T09:20:10;112741.81;;;-145.50;62.83
50226;BME280;36113;50.742;6.432;2023-04-30T09:22:37;112741.81;;;-145.50;59.28
50226;BME280;36113;50.742;6.432;2023-04-30T09:25:03;112741.81;;;-145.50;57.82
50226;BME280;36113;50.742;6.432;2023-04-30T09:27:28;112741.81;;;-145.50;57.86
50226;BME280;36113;50.742;6.432;2023-04-30T09:29:54;112741.81;;;-145.50;59.54
50226;BME280;36113;50.742;6.432;2023-04-30T09:32:20;112741.81;;;-145.50;60.21
50226;BME280;36113;50.742;6.432;2023-04-30T09:34:45;112741.81;;;-145.50;57.97
50226;BME280;36113;50.742;6.432;2023-04-30T09:37:11;112741.81;;;-145.50;58.30
50226;BME280;36113;50.742;6.432;2023-04-30T09:39:50;112741.81;;;-145.50;56.92
50226;BME280;36113;50.742;6.432;2023-04-30T09:42:16;112741.81;;;-145.50;57.27
50226;BME280;36113;50.742;6.432;2023-04-30T09:44:42;112741.81;;;-145.50;57.78
50226;BME280;36113;50.742;6.432;2023-04-30T09:47:16;112741.81;;;-145.50;55.12
50226;BME280;36113;50.742;6.432;2023-04-30T09:49:43;112741.81;;;-145.50;55.33
50226;BME280;36113;50.742;6.432;2023-04-30T09:52:09;112741.81;;;-145.50;57.01
50226;BME280;36113;50.742;6.432;2023-04-30T09:54:35;112741.81;;;-145.50;51.83
50226;BME280;36113;50.742;6.432;2023-04-30T09:57:01;112741.81;;;-145.50;51.66
50226;BME280;36113;50.742;6.432;2023-04-30T09:59:32;112741.81;;;-145.50;51.47
50226;BME280;36113;50.742;6.432;2023-04-30T10:02:01;112741.81;;;-145.50;50.56
50226;BME280;36113;50.742;6.432;2023-04-30T10:04:29;112741.81;;;-145.50;47.66
50226;BME280;36113;50.742;6.432;2023-04-30T10:06:57;112741.81;;;-145.50;47.29
50226;BME280;36113;50.742;6.432;2023-04-30T10:09:28;112741.81;;;-145.50;43.69
50226;BME280;36113;50.742;6.432;2023-04-30T10:11:56;112741.81;;;-145.50;45.70
50226;BME280;36113;50.742;6.432;2023-04-30T10:14:23;112741.81;;;-145.50;48.52
50226;BME280;36113;50.742;6.432;2023-04-30T10:17:10;112741.81;;;-145.50;48.30
50226;BME280;36113;50.742;6.432;2023-04-30T10:19:38;112741.81;;;-145.50;47.90
50226;BME280;36113;50.742;6.432;2023-04-30T10:22:06;112741.81;;;-145.50;45.26
50226;BME280;36113;50.742;6.432;2023-04-30T10:24:33;112741.81;;;-145.50;46.64
50226;BME280;36113;50.742;6.432;2023-04-30T10:26:58;112741.81;;;-145.50;46.52
50226;BME280;36113;50.742;6.432;2023-04-30T10:29:24;112741.81;;;-145.50;46.45
50226;BME280;36113;50.742;6.432;2023-04-30T10:31:50;112741.81;;;-145.50;45.90
50226;BME280;36113;50.742;6.432;2023-04-30T10:34:46;112741.81;;;-145.50;44.79
50226;BME280;36113;50.742;6.432;2023-04-30T10:37:30;112741.81;;;-145.50;44.76
50226;BME280;36113;50.742;6.432;2023-04-30T10:39:56;112741.81;;;-145.50;43.54
50226;BME280;36113;50.742;6.432;2023-04-30T10:42:21;112741.81;;;-145.50;43.38
50226;BME280;36113;50.742;6.432;2023-04-30T10:44:47;112741.81;;;-145.50;43.71
50226;BME280;36113;50.742;6.432;2023-04-30T10:47:14;112741.81;;;-145.50;43.60
50226;BME280;36113;50.742;6.432;2023-04-30T10:50:00;112741.81;;;-145.50;43.77
50226;BME280;36113;50.742;6.432;2023-04-30T10:54:51;112741.81;;;-145.50;44.57
50226;BME280;36113;50.742;6.432;2023-04-30T10:57:17;112741.81;;;-145.50;43.17
50226;BME280;36113;50.742;6.432;2023-04-30T10:59:53;112741.81;;;-145.50;42.95
50226;BME280;36113;50.742;6.432;2023-04-30T11:02:19;112741.81;;;-145.50;42.33
50226;BME280;36113;50.742;6.432;2023-04-30T11:07:30;112741.81;;;-145.50;42.82
50226;BME280;36113;50.742;6.432;2023-04-30T11:09:56;112741.81;;;-145.50;42.42
50226;BME280;36113;50.742;6.432;2023-04-30T11:12:22;112741.81;;;-145.50;41.68
50226;BME280;36113;50.742;6.432;2023-04-30T11:15:10;112741.81;;;-145.50;43.15
50226;BME280;36113;50.742;6.432;2023-04-30T11:17:37;112741.81;;;-145.50;42.85
50226;BME280;36113;50.742;6.432;2023-04-30T11:20:03;112741.81;;;-145.50;43.82
50226;BME280;36113;50.742;6.432;2023-04-30T11:22:28;112741.81;;;-145.50;42.98
50226;BME280;36113;50.742;6.432;2023-04-30T11:27:35;112741.81;;;-145.50;43.32
50226;BME280;36113;50.742;6.432;2023-04-30T11:30:05;112741.81;;;-145.50;42.38
50226;BME280;36113;50.742;6.432;2023-04-30T11:32:35;112741.81;;;-145.50;40.85
50226;BME280;36113;50.742;6.432;2023-04-30T11:35:01;112741.81;;;-145.50;40.50
50226;BME280;36113;50.742;6.432;2023-04-30T11:37:41;112741.81;;;-145.50;41.83
50226;BME280;36113;50.742;6.432;2023-04-30T11:40:08;112741.81;;;-145.50;42.59
50226;BME280;36113;50.742;6.432;2023-04-30T11:42:35;112741.81;;;-145.50;42.11
50226;BME280;36113;50.742;6.432;2023-04-30T11:45:12;112741.81;;;-145.50;39.85
50226;BME280;36113;50.742;6.432;2023-04-30T11:47:50;112741.81;;;-145.50;41.13
50226;BME280;36113;50.742;6.432;2023-04-30T11:50:25;112741.81;;;-145.50;41.68
50226;BME280;36113;50.742;6.432;2023-04-30T11:52:54;112741.81;;;-145.50;41.57
50226;BME280;36113;50.742;6.432;2023-04-30T11:55:25;112741.81;;;-145.50;40.28
50226;BME280;36113;50.742;6.432;2023-04-30T11:57:59;112741.81;;;-145.50;39.30
50226;BME280;36113;50.742;6.432;2023-04-30T12:00:28;112741.81;;;-145.50;39.90
50226;BME280;36113;50.742;6.432;2023-04-30T12:02:59;112741.81;;;-145.50;40.80
50226;BME280;36113;50.742;6.432;2023-04-30T12:05:26;112741.81;;;-145.50;40.97
50226;BME280;36113;50.742;6.432;2023-04-30T12:07:55;112741.81;;;-145.50;40.67
50226;BME280;36113;50.742;6.432;2023-04-30T12:10:21;112741.81;;;-145.50;40.35
50226;BME280;36113;50.742;6.432;2023-04-30T12:12:48;112741.81;;;-145.50;38.27
50226;BME280;36113;50.742;6.432;2023-04-30T12:15:23;112741.81;;;-145.50;39.74
50226;BME280;36113;50.742;6.432;2023-04-30T12:17:52;112741.81;;;-145.50;39.46
50226;BME280;36113;50.742;6.432;2023-04-30T12:20:18;112741.81;;;-145.50;40.76
50226;BME280;36113;50.742;6.432;2023-04-30T12:22:45;112741.81;;;-145.50;40.09
50226;BME280;36113;50.742;6.432;2023-04-30T12:25:13;112741.81;;;-145.50;40.68
50226;BME280;36113;50.742;6.432;2023-04-30T12:27:40;112741.81;;;-145.50;40.07
50226;BME280;36113;50.742;6.432;2023-04-30T12:30:07;112741.81;;;-145.50;41.47
50226;BME280;36113;50.742;6.432;2023-04-30T12:32:49;112741.81;;;-145.50;40.92
50226;BME280;36113;50.742;6.432;2023-04-30T12:35:19;112741.81;;;-145.50;39.29
50226;BME280;36113;50.742;6.432;2023-04-30T12:37:50;112741.81;;;-145.50;40.58
50226;BME280;36113;50.742;6.432;2023-04-30T12:40:17;112741.81;;;-145.50;40.71
50226;BME280;36113;50.742;6.432;2023-04-30T12:42:43;112741.81;;;-145.50;40.51
50226;BME280;36113;50.742;6.432;2023-04-30T12:45:11;112741.81;;;-145.50;42.34